createdAt,value
2022-12-20T00:00:03.533Z,89.97
2022-12-20T00:02:20.612Z,82.13
2022-12-20T00:04:37.915Z,80.93
2022-12-20T00:06:54.843Z,86.22
2022-12-20T00:09:12.168Z,86.93
2022-12-20T00:11:29.494Z,83.18
2022-12-20T00:13:46.537Z,81.18
2022-12-20T00:16:03.668Z,83.88
2022-12-20T00:18:20.651Z,83.30
2022-12-20T00:20:38.638Z,86.18
2022-12-20T00:22:55.597Z,86.95
2022-12-20T00:25:12.615Z,87.72
2022-12-20T00:27:29.639Z,81.90
2022-12-20T00:29:47.975Z,87.80
2022-12-20T00:32:05.036Z,86.85
2022-12-20T00:34:22.147Z,89.13
2022-12-20T00:36:39.215Z,88.65
2022-12-20T00:38:56.572Z,86.53
2022-12-20T00:41:13.867Z,86.30
2022-12-20T00:43:30.789Z,90.53
2022-12-20T00:45:47.752Z,90.05
2022-12-20T00:48:04.723Z,87.50
2022-12-20T00:50:21.636Z,83.45
2022-12-20T00:52:38.644Z,77.40
2022-12-20T00:54:55.644Z,78.53
2022-12-20T00:57:13.012Z,86.60
2022-12-20T00:59:29.956Z,85.53
2022-12-20T01:01:47.106Z,84.57
2022-12-20T01:04:04.254Z,81.72
2022-12-20T01:06:21.607Z,81.70
2022-12-20T01:08:38.506Z,76.93
2022-12-20T01:10:55.442Z,88.63
2022-12-20T01:13:12.381Z,86.53
2022-12-20T01:15:30.466Z,85.85
2022-12-20T01:17:47.471Z,92.13
2022-12-20T01:20:04.430Z,89.65
2022-12-20T01:22:21.489Z,85.55
2022-12-20T01:24:39.658Z,91.90
2022-12-20T01:26:56.649Z,86.40
2022-12-20T01:29:13.601Z,93.43
2022-12-20T01:31:30.592Z,83.97
2022-12-20T01:33:47.634Z,88.97
2022-12-20T01:36:05.614Z,86.35
2022-12-20T01:38:22.895Z,79.57
2022-12-20T01:40:40.235Z,90.30
2022-12-20T01:42:57.184Z,79.55
2022-12-20T01:45:14.324Z,80.32
2022-12-20T01:47:32.569Z,89.82
2022-12-20T01:49:49.591Z,86.20
2022-12-20T01:52:06.709Z,83.95
2022-12-20T01:54:23.788Z,87.10
2022-12-20T01:56:40.833Z,91.82
2022-12-20T01:58:58.199Z,88.70
2022-12-20T02:01:15.273Z,96.32
2022-12-20T02:03:33.697Z,93.80
2022-12-20T02:05:51.067Z,86.75
2022-12-20T02:08:08.002Z,86.47
2022-12-20T02:10:25.096Z,84.82
2022-12-20T02:12:42.148Z,91.57
2022-12-20T02:14:59.042Z,81.25
2022-12-20T02:17:15.973Z,82.43
2022-12-20T02:19:33.279Z,85.30
2022-12-20T02:21:51.576Z,85.70
2022-12-20T02:24:08.653Z,98.13
2022-12-20T02:26:25.922Z,93.18
2022-12-20T02:28:42.884Z,85.20
2022-12-20T02:31:00.123Z,84.60
2022-12-20T02:33:17.378Z,89.60
2022-12-20T02:35:34.655Z,86.80
2022-12-20T02:37:51.528Z,85.30
2022-12-20T02:40:08.412Z,86.03
2022-12-20T02:42:25.739Z,89.18
2022-12-20T02:44:42.751Z,87.20
2022-12-20T02:47:00.780Z,85.90
2022-12-20T02:49:18.768Z,86.25
2022-12-20T02:51:35.789Z,86.25
2022-12-20T02:53:53.538Z,88.82
2022-12-20T02:56:10.605Z,86.80
2022-12-20T02:58:27.539Z,90.80
2022-12-20T03:00:44.574Z,91.85
2022-12-20T03:03:01.647Z,87.18
2022-12-20T03:05:19.053Z,90.20
2022-12-20T03:07:35.927Z,89.63
2022-12-20T03:09:53.258Z,86.32
2022-12-20T03:12:10.287Z,86.07
2022-12-20T03:14:27.325Z,94.10
2022-12-20T03:16:44.412Z,81.45
2022-12-20T03:19:01.515Z,81.53
2022-12-20T03:21:18.853Z,88.88
2022-12-20T03:23:35.957Z,82.00
2022-12-20T03:25:53.187Z,86.40
2022-12-20T03:28:10.230Z,82.95
2022-12-20T03:30:27.450Z,80.47
2022-12-20T03:32:44.712Z,83.88
2022-12-20T03:35:01.621Z,82.03
2022-12-20T03:37:18.944Z,77.38
2022-12-20T03:39:35.932Z,75.30
2022-12-20T03:41:53.304Z,75.07
2022-12-20T03:44:10.462Z,78.20
2022-12-20T03:46:27.541Z,78.70
2022-12-20T03:48:44.552Z,78.97
2022-12-20T03:51:01.483Z,78.07
2022-12-20T03:53:19.388Z,81.40
2022-12-20T03:55:36.363Z,76.57
2022-12-20T03:57:53.391Z,74.20
2022-12-20T04:00:10.617Z,72.22
2022-12-20T04:02:27.812Z,75.90
2022-12-20T04:04:45.204Z,68.22
2022-12-20T04:07:02.197Z,74.07
2022-12-20T04:09:19.231Z,70.05
2022-12-20T04:11:36.267Z,74.18
2022-12-20T04:13:53.354Z,71.03
2022-12-20T04:16:10.364Z,77.38
2022-12-20T04:18:28.663Z,73.22
2022-12-20T04:20:46.913Z,77.38
2022-12-20T04:23:04.941Z,74.53
2022-12-20T04:25:22.015Z,72.40
2022-12-20T04:27:39.067Z,77.80
2022-12-20T04:29:55.924Z,74.70
2022-12-20T04:32:12.881Z,74.38
2022-12-20T04:34:29.935Z,75.45
2022-12-20T04:36:46.885Z,72.75
2022-12-20T04:39:03.922Z,76.40
2022-12-20T04:41:21.854Z,75.30
2022-12-20T04:43:39.114Z,74.90
2022-12-20T04:45:56.160Z,76.10
2022-12-20T04:48:46.092Z,77.35
2022-12-20T04:50:50.388Z,82.07
2022-12-20T04:53:07.426Z,84.60
2022-12-20T04:55:24.428Z,80.93
2022-12-20T04:57:41.694Z,77.03
2022-12-20T04:59:58.759Z,76.07
2022-12-20T05:02:17.204Z,81.97
2022-12-20T05:04:37.550Z,83.40
2022-12-20T05:06:54.737Z,85.22
2022-12-20T05:09:11.695Z,79.28
2022-12-20T05:11:28.934Z,85.32
2022-12-20T05:13:46.302Z,90.13
2022-12-20T05:16:04.281Z,87.18
2022-12-20T05:18:21.331Z,90.15
2022-12-20T05:20:38.555Z,89.00
2022-12-20T05:22:55.627Z,84.25
2022-12-20T05:25:12.624Z,76.90
2022-12-20T05:27:29.503Z,86.75
2022-12-20T05:29:46.403Z,86.88
2022-12-20T05:32:03.480Z,84.47
2022-12-20T05:34:20.534Z,76.65
2022-12-20T05:36:37.436Z,86.93
2022-12-20T05:38:58.212Z,86.05
2022-12-20T05:41:20.832Z,86.15
2022-12-20T05:43:37.834Z,89.97
2022-12-20T05:45:55.045Z,82.15
2022-12-20T05:48:12.119Z,90.50
2022-12-20T05:50:29.441Z,88.95
2022-12-20T05:52:46.665Z,87.63
2022-12-20T05:55:03.593Z,86.05
2022-12-20T05:57:20.520Z,89.63
2022-12-20T05:59:37.601Z,88.50
2022-12-20T06:01:54.706Z,86.32
2022-12-20T06:04:11.914Z,86.75
2022-12-20T06:06:28.871Z,94.03
2022-12-20T06:08:46.142Z,84.45
2022-12-20T06:11:03.391Z,87.35
2022-12-20T06:13:20.392Z,80.97
2022-12-20T06:15:37.705Z,86.75
2022-12-20T06:17:55.040Z,87.00
2022-12-20T06:20:12.034Z,85.60
2022-12-20T06:22:29.329Z,93.03
2022-12-20T06:24:48.744Z,82.43
2022-12-20T06:27:06.133Z,86.10
2022-12-20T06:29:23.098Z,82.00
2022-12-20T06:31:40.177Z,88.60
2022-12-20T06:33:57.212Z,81.43
2022-12-20T06:36:14.152Z,84.45
2022-12-20T06:38:31.391Z,83.90
2022-12-20T06:40:48.416Z,74.95
2022-12-20T06:43:05.455Z,75.15
2022-12-20T06:45:22.851Z,83.93
2022-12-20T06:47:39.898Z,76.13
2022-12-20T06:49:56.858Z,88.05
2022-12-20T06:52:13.744Z,82.25
2022-12-20T06:54:31.027Z,83.57
2022-12-20T06:56:47.890Z,82.70
2022-12-20T06:59:04.820Z,82.55
2022-12-20T07:01:21.910Z,86.85
2022-12-20T07:03:39.110Z,81.88
2022-12-20T07:05:56.091Z,88.75
2022-12-20T07:08:13.128Z,83.00
2022-12-20T07:10:30.245Z,85.95
2022-12-20T07:12:48.643Z,79.50
2022-12-20T07:15:05.667Z,80.07
2022-12-20T07:17:22.679Z,83.50
2022-12-20T07:19:42.086Z,81.97
2022-12-20T07:22:02.559Z,77.00
2022-12-20T07:24:19.648Z,85.95
2022-12-20T07:26:36.981Z,90.80
2022-12-20T07:28:54.199Z,86.22
2022-12-20T07:31:11.570Z,82.35
2022-12-20T07:33:28.642Z,83.00
2022-12-20T07:35:49.545Z,85.82
2022-12-20T07:38:11.145Z,83.30
2022-12-20T07:40:28.572Z,85.43
2022-12-20T07:42:48.950Z,90.63
2022-12-20T07:45:06.535Z,83.57
2022-12-20T07:47:24.524Z,79.10
2022-12-20T07:49:42.007Z,87.90
2022-12-20T07:51:58.994Z,82.80
2022-12-20T07:54:16.368Z,84.43
2022-12-20T07:56:39.153Z,83.63
2022-12-20T08:01:15.597Z,76.45
2022-12-20T08:03:32.839Z,90.18
2022-12-20T08:05:50.296Z,79.45
2022-12-20T08:08:07.401Z,81.03
2022-12-20T08:10:24.649Z,84.50
2022-12-20T08:12:41.569Z,85.28
2022-12-20T08:14:59.466Z,81.97
2022-12-20T08:17:16.762Z,92.97
2022-12-20T08:19:34.115Z,83.30
2022-12-20T08:21:51.372Z,82.35
2022-12-20T08:24:08.376Z,83.40
2022-12-20T08:26:25.349Z,86.40
2022-12-20T08:28:42.410Z,91.72
2022-12-20T08:30:59.405Z,78.00
2022-12-20T08:33:16.494Z,84.50
2022-12-20T08:35:34.555Z,76.43
2022-12-20T08:37:51.812Z,82.70
2022-12-20T08:40:09.826Z,79.05
2022-12-20T08:42:26.920Z,93.25
2022-12-20T08:44:44.029Z,83.43
2022-12-20T08:47:01.338Z,80.80
2022-12-20T08:49:18.460Z,81.22
2022-12-20T08:51:35.607Z,83.40
2022-12-20T08:53:53.049Z,81.65
2022-12-20T08:56:10.188Z,85.30
2022-12-20T08:58:27.308Z,85.75
2022-12-20T09:00:44.260Z,80.80
2022-12-20T09:03:01.305Z,83.72
2022-12-20T09:05:18.787Z,80.07
2022-12-20T09:07:37.031Z,83.25
2022-12-20T09:09:53.968Z,90.10
2022-12-20T09:12:10.988Z,88.55
2022-12-20T09:14:27.893Z,90.63
2022-12-20T09:16:44.916Z,83.05
2022-12-20T09:19:05.609Z,87.65
2022-12-20T09:21:23.498Z,94.70
2022-12-20T09:23:40.567Z,90.68
2022-12-20T09:25:57.827Z,90.55
2022-12-20T09:28:14.894Z,89.75
2022-12-20T09:30:31.968Z,89.05
2022-12-20T09:32:48.954Z,85.15
2022-12-20T09:35:05.880Z,87.43
2022-12-20T09:37:23.218Z,85.95
2022-12-20T09:39:40.502Z,87.50
2022-12-20T09:41:57.446Z,80.72
2022-12-20T09:44:14.406Z,84.43
2022-12-20T09:46:31.592Z,84.63
2022-12-20T09:48:49.013Z,88.35
2022-12-20T09:51:06.017Z,85.30
2022-12-20T09:53:23.034Z,83.65
2022-12-20T09:55:40.053Z,83.55
2022-12-20T09:57:57.006Z,81.03
2022-12-20T10:00:14.037Z,81.05
2022-12-20T10:05:09.365Z,84.75
2022-12-20T10:07:26.347Z,83.72
2022-12-20T10:09:43.685Z,82.68
2022-12-20T10:12:00.751Z,86.20
2022-12-20T10:14:17.674Z,83.20
2022-12-20T10:16:34.852Z,85.00
2022-12-20T10:18:51.886Z,95.35
2022-12-20T10:21:08.838Z,82.72
2022-12-20T10:23:32.795Z,92.80
2022-12-20T10:25:50.545Z,79.20
2022-12-20T10:28:07.624Z,92.97
2022-12-20T10:30:24.704Z,89.35
2022-12-20T10:32:42.047Z,88.88
2022-12-20T10:34:59.106Z,85.85
2022-12-20T10:37:16.331Z,91.13
2022-12-20T10:39:33.241Z,86.38
2022-12-20T10:41:50.343Z,89.97
2022-12-20T10:44:07.314Z,86.10
2022-12-20T10:46:24.398Z,80.78
2022-12-20T10:48:41.340Z,77.95
2022-12-20T10:50:58.621Z,86.10
2022-12-20T10:53:15.953Z,83.88
2022-12-20T10:55:33.288Z,84.75
2022-12-20T10:57:50.222Z,80.93
2022-12-20T11:00:07.289Z,77.10
2022-12-20T11:02:24.427Z,74.57
2022-12-20T11:04:42.599Z,78.85
2022-12-20T11:06:59.958Z,77.25
2022-12-20T11:09:17.000Z,76.45
2022-12-20T11:11:34.936Z,75.18
2022-12-20T11:13:51.923Z,78.10
2022-12-20T11:16:09.211Z,77.85
2022-12-20T11:18:27.122Z,75.05
2022-12-20T11:20:44.477Z,74.28
2022-12-20T11:23:01.529Z,78.00
2022-12-20T11:25:18.555Z,75.55
2022-12-20T11:27:35.547Z,75.10
2022-12-20T11:29:52.761Z,73.93
2022-12-20T11:32:09.664Z,75.30
2022-12-20T11:34:26.634Z,71.05
2022-12-20T11:36:43.850Z,68.97
2022-12-20T11:39:01.179Z,74.97
2022-12-20T11:41:18.130Z,67.70
2022-12-20T11:43:48.094Z,70.72
2022-12-20T11:46:12.580Z,72.07
2022-12-20T11:48:29.493Z,72.15
2022-12-20T11:50:46.791Z,72.57
2022-12-20T11:53:03.817Z,70.97
2022-12-20T11:55:21.129Z,64.85
2022-12-20T11:58:01.744Z,68.53
2022-12-20T12:00:15.376Z,73.63
2022-12-20T12:02:32.755Z,64.75
2022-12-20T12:04:49.946Z,67.07
2022-12-20T12:07:07.071Z,67.32
2022-12-20T12:09:24.395Z,64.95
2022-12-20T12:12:06.601Z,63.28
2022-12-20T12:14:18.950Z,59.90
2022-12-20T12:16:36.236Z,62.33
2022-12-20T12:18:53.516Z,56.83
2022-12-20T12:21:10.783Z,61.22
2022-12-20T12:23:28.097Z,61.70
2022-12-20T12:25:45.174Z,60.08
2022-12-20T12:28:02.202Z,57.78
2022-12-20T12:30:19.232Z,56.55
2022-12-20T12:32:36.493Z,58.53
2022-12-20T12:34:53.573Z,60.67
2022-12-20T12:37:10.624Z,58.42
2022-12-20T12:39:27.885Z,62.03
2022-12-20T12:41:44.930Z,56.83
2022-12-20T12:44:02.298Z,55.50
2022-12-20T12:46:19.530Z,54.88
2022-12-20T12:48:36.527Z,52.35
2022-12-20T12:50:53.609Z,57.15
2022-12-20T12:53:10.981Z,52.50
2022-12-20T12:55:28.880Z,52.75
2022-12-20T12:57:46.186Z,52.58
2022-12-20T13:00:03.229Z,55.20
2022-12-20T13:02:20.417Z,56.03
2022-12-20T13:04:37.495Z,57.35
2022-12-20T13:06:54.762Z,55.85
2022-12-20T13:09:12.102Z,60.75
2022-12-20T13:11:29.352Z,53.58
2022-12-20T13:13:46.618Z,56.88
2022-12-20T13:16:03.963Z,53.92
2022-12-20T13:18:21.152Z,61.58
2022-12-20T13:20:38.472Z,66.88
2022-12-20T13:22:55.526Z,61.45
2022-12-20T13:25:12.576Z,57.17
2022-12-20T13:27:29.568Z,56.78
2022-12-20T13:29:46.829Z,58.70
2022-12-20T13:32:03.761Z,57.10
2022-12-20T13:34:20.678Z,47.72
2022-12-20T13:36:37.771Z,44.10
2022-12-20T13:38:56.163Z,44.20
2022-12-20T13:41:13.414Z,42.92
2022-12-20T13:43:30.486Z,37.33
2022-12-20T13:45:47.770Z,45.75
2022-12-20T13:48:11.094Z,41.58
2022-12-20T13:50:28.727Z,40.00
2022-12-20T13:52:46.003Z,40.17
2022-12-20T13:55:03.121Z,40.13
2022-12-20T13:57:20.275Z,36.83
2022-12-20T13:59:37.618Z,39.45
2022-12-20T14:01:54.580Z,37.60
2022-12-20T14:04:11.599Z,40.30
2022-12-20T14:06:28.786Z,36.20
2022-12-20T14:08:45.815Z,38.75
2022-12-20T14:11:02.885Z,35.55
2022-12-20T14:13:19.916Z,37.65
2022-12-20T14:15:36.853Z,35.17
2022-12-20T14:17:53.884Z,40.75
2022-12-20T14:20:10.872Z,38.42
2022-12-20T14:22:28.062Z,36.45
2022-12-20T14:24:45.363Z,34.75
2022-12-20T14:27:02.446Z,37.20
2022-12-20T14:29:19.396Z,36.30
2022-12-20T14:31:36.454Z,34.97
2022-12-20T14:33:53.753Z,38.40
2022-12-20T14:36:10.694Z,37.25
2022-12-20T14:38:27.718Z,36.20
2022-12-20T14:40:48.950Z,38.42
2022-12-20T14:43:09.158Z,38.58
2022-12-20T14:45:26.209Z,43.63
2022-12-20T14:47:43.123Z,42.20
2022-12-20T14:50:00.399Z,43.80
2022-12-20T14:52:17.811Z,55.67
2022-12-20T14:55:07.050Z,57.90
2022-12-20T14:57:11.795Z,53.97
2022-12-20T14:59:28.858Z,50.55
2022-12-20T15:01:47.241Z,47.25
2022-12-20T15:04:04.538Z,43.40
2022-12-20T15:06:21.871Z,43.55
2022-12-20T15:08:39.209Z,36.90
2022-12-20T15:10:56.195Z,36.80
2022-12-20T15:13:13.259Z,36.58
2022-12-20T15:15:30.208Z,39.53
2022-12-20T15:17:47.233Z,40.00
2022-12-20T15:20:04.506Z,38.88
2022-12-20T15:22:21.763Z,44.40
2022-12-20T15:24:38.622Z,43.20
2022-12-20T15:26:55.838Z,43.10
2022-12-20T15:29:12.798Z,39.67
2022-12-20T15:31:33.630Z,41.78
2022-12-20T15:33:51.300Z,41.47
2022-12-20T15:36:08.605Z,40.47
2022-12-20T15:38:47.749Z,44.58
2022-12-20T15:41:02.730Z,41.15
2022-12-20T15:43:20.014Z,45.97
2022-12-20T15:45:38.280Z,42.72
2022-12-20T15:47:55.678Z,43.03
2022-12-20T15:50:13.776Z,40.33
2022-12-20T15:52:30.753Z,44.95
2022-12-20T15:54:47.794Z,43.47
2022-12-20T15:57:05.069Z,45.38
2022-12-20T15:59:58.525Z,47.10
2022-12-20T16:01:59.000Z,45.28
2022-12-20T16:04:16.425Z,49.92
2022-12-20T16:06:33.828Z,54.80
2022-12-20T16:08:50.827Z,50.08
2022-12-20T16:11:08.147Z,48.10
2022-12-20T16:13:25.480Z,44.97
2022-12-20T16:15:42.726Z,44.85
2022-12-20T16:18:00.012Z,45.47
2022-12-20T16:20:18.021Z,46.33
2022-12-20T16:22:35.323Z,44.80
2022-12-20T16:24:52.681Z,46.05
2022-12-20T16:27:09.740Z,38.58
2022-12-20T16:29:27.097Z,46.58
2022-12-20T16:31:44.316Z,42.38
2022-12-20T16:34:01.613Z,39.65
2022-12-20T16:36:18.511Z,41.22
2022-12-20T16:38:35.728Z,41.17
2022-12-20T16:40:53.010Z,42.95
2022-12-20T16:43:10.051Z,40.90
2022-12-20T16:45:27.298Z,43.72
2022-12-20T16:47:44.380Z,43.78
2022-12-20T16:50:01.295Z,45.38
2022-12-20T16:52:18.387Z,45.95
2022-12-20T16:54:35.354Z,46.30
2022-12-20T16:56:52.410Z,40.90
2022-12-20T16:59:25.106Z,45.63
2022-12-20T17:01:42.238Z,46.28
2022-12-20T17:03:59.730Z,44.47
2022-12-20T17:06:17.075Z,50.55
2022-12-20T17:11:09.343Z,51.08
2022-12-20T17:13:26.653Z,63.63
2022-12-20T17:15:44.580Z,51.67
2022-12-20T17:18:01.610Z,56.88
2022-12-20T17:20:19.001Z,56.35
2022-12-20T17:25:10.172Z,53.42
2022-12-20T17:27:27.100Z,47.70
2022-12-20T17:29:44.379Z,50.17
2022-12-20T17:32:01.535Z,50.67
2022-12-20T17:34:18.577Z,52.05
2022-12-20T17:36:37.985Z,61.08
2022-12-20T17:38:55.694Z,56.45
2022-12-20T17:41:12.641Z,60.58
2022-12-20T17:43:29.966Z,59.28
2022-12-20T17:45:46.954Z,49.38
2022-12-20T17:48:04.352Z,49.17
2022-12-20T17:50:21.356Z,53.72
2022-12-20T17:52:38.647Z,53.67
2022-12-20T17:54:55.702Z,55.92
2022-12-20T17:57:13.795Z,53.90
2022-12-20T17:59:31.180Z,52.85
2022-12-20T18:01:48.637Z,52.10
2022-12-20T18:04:06.466Z,55.30
2022-12-20T18:06:23.885Z,58.55
2022-12-20T18:08:40.942Z,57.60
2022-12-20T18:10:58.298Z,52.55
2022-12-20T18:13:15.242Z,50.60
2022-12-20T18:15:32.170Z,51.13
2022-12-20T18:17:49.182Z,54.72
2022-12-20T18:20:06.199Z,50.92
2022-12-20T18:22:23.263Z,51.72
2022-12-20T18:24:40.620Z,50.25
2022-12-20T18:26:57.680Z,59.58
2022-12-20T18:29:14.939Z,58.60
2022-12-20T18:31:31.902Z,50.95
2022-12-20T18:33:52.504Z,54.58
2022-12-20T18:36:14.303Z,51.95
2022-12-20T18:38:31.713Z,53.35
2022-12-20T18:40:49.033Z,49.40
2022-12-20T18:43:07.108Z,47.53
2022-12-20T18:45:24.092Z,50.95
2022-12-20T18:47:41.442Z,46.67
2022-12-20T18:49:58.415Z,53.97
2022-12-20T18:52:15.429Z,50.05
2022-12-20T18:54:32.379Z,51.90
2022-12-20T18:56:49.432Z,48.17
2022-12-20T18:59:12.453Z,52.08
2022-12-20T19:01:30.063Z,52.25
2022-12-20T19:03:47.523Z,59.25
2022-12-20T19:06:04.867Z,49.72
2022-12-20T19:08:21.867Z,51.70
2022-12-20T19:10:40.219Z,49.65
2022-12-20T19:13:00.916Z,47.58
2022-12-20T19:15:22.288Z,44.33
2022-12-20T19:17:39.593Z,48.33
2022-12-20T19:19:57.024Z,46.22
2022-12-20T19:22:13.975Z,41.40
2022-12-20T19:24:30.905Z,48.10
2022-12-20T19:26:47.832Z,40.92
2022-12-20T19:29:04.809Z,47.17
2022-12-20T19:31:22.491Z,46.83
2022-12-20T19:33:39.657Z,53.35
2022-12-20T19:35:57.776Z,59.67
2022-12-20T19:38:15.119Z,60.47
2022-12-20T19:40:33.435Z,57.72
2022-12-20T19:42:50.394Z,52.50
2022-12-20T19:45:07.737Z,55.03
2022-12-20T19:47:25.095Z,56.67
2022-12-20T19:49:42.370Z,57.53
2022-12-20T19:51:59.695Z,53.85
2022-12-20T19:54:16.792Z,53.83
2022-12-20T19:56:33.926Z,57.95
2022-12-20T19:58:50.967Z,57.85
2022-12-20T20:01:08.137Z,62.65
2022-12-20T20:03:25.209Z,63.95
2022-12-20T20:05:43.322Z,65.07
2022-12-20T20:08:01.263Z,66.15
2022-12-20T20:10:18.306Z,59.35
2022-12-20T20:12:36.268Z,59.78
2022-12-20T20:14:54.244Z,59.92
2022-12-20T20:17:11.141Z,68.93
2022-12-20T20:19:28.163Z,79.43
2022-12-20T20:21:45.180Z,77.80
2022-12-20T20:24:02.519Z,114.50
2022-12-20T20:26:19.581Z,111.90
2022-12-20T20:28:42.134Z,116.35
2022-12-20T20:31:02.895Z,85.50
2022-12-20T20:33:20.021Z,75.95
2022-12-20T20:35:37.038Z,71.57
2022-12-20T20:37:54.041Z,66.70
2022-12-20T20:40:10.966Z,64.40
2022-12-20T20:42:28.008Z,69.57
2022-12-20T20:44:44.985Z,64.22
2022-12-20T20:47:01.924Z,65.43
2022-12-20T20:49:20.317Z,67.95
2022-12-20T20:51:37.426Z,60.88
2022-12-20T20:53:54.744Z,69.65
2022-12-20T20:56:11.694Z,71.70
2022-12-20T20:58:28.761Z,71.50
2022-12-20T21:00:46.833Z,73.50
2022-12-20T21:03:04.425Z,71.65
2022-12-20T21:07:58.563Z,77.32
2022-12-20T21:10:16.655Z,86.82
2022-12-20T21:12:34.019Z,85.85
2022-12-20T21:15:21.286Z,94.68
2022-12-20T21:17:28.610Z,89.75
2022-12-20T21:19:45.732Z,98.90
2022-12-20T21:22:03.016Z,88.72
2022-12-20T21:24:20.320Z,86.55
2022-12-20T21:26:37.370Z,87.15
2022-12-20T21:28:54.477Z,75.18
2022-12-20T21:31:11.610Z,80.10
2022-12-20T21:33:28.562Z,77.95
2022-12-20T21:35:51.673Z,81.32
2022-12-20T21:38:10.849Z,86.18
2022-12-20T21:40:27.905Z,88.20
2022-12-20T21:42:44.932Z,90.45
2022-12-20T21:45:01.992Z,86.38
2022-12-20T21:47:19.120Z,89.45
2022-12-20T21:49:36.032Z,93.05
2022-12-20T21:51:53.095Z,93.30
2022-12-20T21:54:10.213Z,100.90
2022-12-20T21:56:27.207Z,92.22
2022-12-20T21:58:44.164Z,82.82
2022-12-20T22:01:01.576Z,89.32
2022-12-20T22:03:18.799Z,83.68
2022-12-20T22:05:35.864Z,82.80
2022-12-20T22:07:52.915Z,83.15
2022-12-20T22:10:09.898Z,87.53
2022-12-20T22:12:26.956Z,91.25
2022-12-20T22:14:44.896Z,86.35
2022-12-20T22:17:01.863Z,89.18
2022-12-20T22:19:19.212Z,89.35
2022-12-20T22:21:36.213Z,95.75
2022-12-20T22:23:53.166Z,92.13
2022-12-20T22:26:10.218Z,89.28
2022-12-20T22:28:27.146Z,89.57
2022-12-20T22:30:44.231Z,97.95
2022-12-20T22:33:01.675Z,89.57
2022-12-20T22:35:22.742Z,86.82
2022-12-20T22:37:40.425Z,86.00
2022-12-20T22:39:58.461Z,92.20
2022-12-20T22:42:15.450Z,96.45
2022-12-20T22:44:32.534Z,97.60
2022-12-20T22:46:49.424Z,95.57
2022-12-20T22:49:06.335Z,98.47
2022-12-20T22:51:23.310Z,100.07
2022-12-20T22:53:41.347Z,112.15
2022-12-20T22:55:58.717Z,99.22
2022-12-20T22:58:16.172Z,97.88
2022-12-20T23:00:33.301Z,97.18
2022-12-20T23:02:50.515Z,97.85
2022-12-20T23:05:07.608Z,96.18
2022-12-20T23:07:24.581Z,93.15
2022-12-20T23:09:41.500Z,98.43
2022-12-20T23:11:58.725Z,95.07
2022-12-20T23:14:15.781Z,95.75
2022-12-20T23:16:33.120Z,99.05
2022-12-20T23:18:50.131Z,94.05
2022-12-20T23:21:07.186Z,95.63
2022-12-20T23:23:24.633Z,98.78
2022-12-20T23:25:41.939Z,97.57
2022-12-20T23:27:59.084Z,95.63
2022-12-20T23:30:17.142Z,96.90
2022-12-20T23:32:34.103Z,91.63
2022-12-20T23:34:51.125Z,88.13
2022-12-20T23:37:08.261Z,94.47
2022-12-20T23:39:25.335Z,93.55
2022-12-20T23:41:42.358Z,96.68
2022-12-20T23:43:59.698Z,90.90
2022-12-20T23:46:17.076Z,93.30
2022-12-20T23:48:34.178Z,104.70
2022-12-20T23:50:51.524Z,96.55
2022-12-20T23:53:08.630Z,87.13
2022-12-20T23:55:25.526Z,83.45
2022-12-20T23:57:42.382Z,83.65
2022-12-20T23:59:59.444Z,88.53
